Modesto City Co-Harry Sham Field
KMOD : now visible

Airfield :











YOU CAN JOIN US ON...

 
LOGIN :

Register | Disclaimer

   EN    FR    IT 

 









Legend :    VFR   Marginal VFR   IFR   Intensive IFR   Very Intensive IFR
Visi :
Ceiling :
>= 8 km
>= 3000ft
5 to 8 km
1000 to 3000 ft
1500m to 5 km
500 to 1000 ft
800 to 1500m
200 to 500 ft
< 800m
< 200 ft
Symbols :   Thunderstorms  Fog  Heavy snow  Heavy precipitations  Wind > 20 kt






- Airport Elevation : 97 ft
- IATA code : MOD


KMOD - Modesto City Co-Harry Sham Field

CURRENT METAR :
  • 250953Z AUTO 02003KT 10SM CLR 18/09 A2993 RMK AO2 SLP135 T01780094

EXPIRED METARs :
  • 250853Z AUTO 35005KT 10SM CLR 18/09 A2993 RMK AO2 SLP134 T01830089 50001
  • 250753Z AUTO 33009KT 10SM CLR 19/08 A2993 RMK AO2 SLP135 T01940083 403220167

TAF KMOD
Valid from the 25 at 06:00 until the 26 at 06:00 UTC


250523Z 2506/2606 33007KT P6SM SKC
FM252000 32010KT P6SM SKC
KZOA FIR / North America



MET'MAP, your aeronautical weather chart ! - Copyright ORBIFLY December 2007 - Disclaimer

ORBIFLY MET'MAP TEAM :

Programming & Development : Alexandra Zaïnal
Concept & original design : Baudouin d'Aumeries
Assistance for programming : Marc-Olivier Méhu
Technical & hardware support : Manuel Goepfert

Contact : metmap@orbifly.com




SOURCES & CREDITS :

   NOAA       Earth
Advisory